메인 페이지
METAR-TAF:

METAR-TAF

공항 :

극북의 땅, 그린란드

위도: 76-32N, 경도: 068-42W, 고도: 77m

현재 날씨관측

예보는 25분 전, 10:16시(UTC)에 발표되었습니다.
북서3kt
온도 -12°C
습도 92%
기압 1005 hPa
시정 10km 이상
고도 300ft 상공 구름 조금
고도 800ft 상공 흐림

METAR: BGTL 251016Z AUTO 31003KT 9999 FEW003 OVC008 M12/M13 A2969 RMK AO2 SLP042 TSNO $

시각: 07:41 (10:41 UTC)

예보

예보는 1 시간 41분 전, 09:00시(UTC)에 발표되었습니다.
예보 대상 시간: 25일 09시부터 26일 15시까지 (UTC)
서남서6kt
시정: 8000m
고도 700ft 상공 구름 많음
고도 4000ft 상공 흐림
약한눈
전환 중
26일 06시부터 26일 07시까지 (UTC)
남남동6kt
시정 10km 이상
고도 2000ft 상공 구름 많음
고도 7000ft 상공 흐림

TAF: BGTL 250900Z 2509/2615 24006KT 8000 -SN BKN007 OVC040 620079 QNH2967INS BECMG 2606/2607 15006KT 9999 NSW BKN020 OVC070 620208 QNH2981INS TXM08/2518Z TNM13/2606Z

4,000개 이상의 공항 관측 자료 및 예보 (METAR 및 TAF 보고).

지도상에서 검색 가능한 기상관측소가 노란 점과 빨간 점으로 표시되어 있습니다.

기상관측소 명을 보려면 표시 위로 마우스를 이동하세요.

날씨 관측과 예보를 보려면 클릭하세요.

지도 변경 : 확대하려면 엑스 표시가 있는 녹색 버튼, 축소하려면 빼기 표시가 있는 녹색 버튼, 다음 페이지의 지도를 보려면 녹색 화살표를 클릭하세요.


METAR-TAF: